Portland, Oregon
Traffic Map
Current Weather Conditions
Portland, Oregon
Overcast
Overcast
45°
Feels Like: 41°
Wind Chill: 41° Ceiling: 3100
Heat Index: 45° Visibility: 10mi
Dew Point: 42° Wind: 7mph
Humidity: 90% Direction: 130° (SE)
Pressure: 30.22in Gusts: 0mph
Raw Report DataKPDX 171923Z 13006KT 10SM FEW007 BKN031 OVC045 07/06 A3022 RMK AO2 PRESFR T00720056 $
Traffic Incident Summary
Active as of:
Severity:
Category:
InformationThere was an issue retrieving the traffic information for this location. Please try a different location or try again shortly.
Advertisements